La rose des vents
Donnes mto: Semaine 11/02/08 - 17/02/08 (S 7)
Date Horaire Temp. E. Hum. E. P.atmo. Pluie Vent 1mn Direction Ensoleilleme Ev.Tr. Solaire P. de rose Temp au vent Rafales
11/02/2008 00:00 5,8 C 75 % 1029,7 hPa 0,0 l/m 4,8 km/h (1 Bft) NO 0,00 h 0,025 mm 0 W/m 1,6 C 5,0 C 7,1 km/h (2 Bft)
11/02/2008 01:00 5,8 C 73 % 1029,6 hPa 0,0 l/m 5,2 km/h (1 Bft) NO 0,00 h 0,025 mm 0 W/m 1,3 C 4,9 C 7,1 km/h (2 Bft)
11/02/2008 02:00 5,7 C 69 % 1029,3 hPa 0,0 l/m 4,6 km/h (1 Bft) O-NO 0,00 h 0,025 mm 0 W/m 0,5 C 5,0 C 6,8 km/h (2 Bft)
11/02/2008 03:00 4,9 C 69 % 1029,2 hPa 0,0 l/m 3,7 km/h (1 Bft) O-NO 0,00 h 0,025 mm 0 W/m -0,4 C 4,5 C 6,0 km/h (2 Bft)
11/02/2008 04:00 4,6 C 69 % 1028,7 hPa 0,0 l/m 6,8 km/h (2 Bft) O 0,00 h 0,025 mm 0 W/m -0,6 C 3,1 C 9,9 km/h (2 Bft)
11/02/2008 05:00 5,0 C 65 % 1028,7 hPa 0,0 l/m 6,6 km/h (2 Bft) O-NO 0,00 h 0,025 mm 0 W/m -1,1 C 3,5 C 9,3 km/h (2 Bft)
11/02/2008 06:00 4,5 C 65 % 1028,7 hPa 0,0 l/m 7,9 km/h (2 Bft) O 0,00 h 0,051 mm 0 W/m -1,4 C 2,6 C 11,0 km/h (2 Bft)
11/02/2008 07:00 4,5 C 66 % 1028,8 hPa 0,0 l/m 9,7 km/h (2 Bft) O 0,17 h 0,051 mm 14 W/m -1,3 C 2,1 C 14,4 km/h (3 Bft)
11/02/2008 08:00 5,7 C 63 % 1028,9 hPa 0,0 l/m 7,2 km/h (2 Bft) O-NO 0,90 h 0,025 mm 93 W/m -0,7 C 4,3 C 10,6 km/h (2 Bft)
11/02/2008 09:00 8,5 C 58 % 1028,9 hPa 0,0 l/m 3,4 km/h (1 Bft) O-NO 1,00 h 0,076 mm 241 W/m 0,7 C 8,2 C 5,2 km/h (1 Bft)
11/02/2008 10:00 10,4 C 55 % 1028,8 hPa 0,0 l/m 1,5 km/h (1 Bft) S-SE 1,00 h 0,127 mm 378 W/m 1,7 C 10,4 C 2,9 km/h (1 Bft)
11/02/2008 11:00 11,8 C 51 % 1029,1 hPa 0,0 l/m 4,5 km/h (1 Bft) E 1,00 h 0,178 mm 473 W/m 2,0 C 11,8 C 7,4 km/h (2 Bft)
11/02/2008 12:00 12,2 C 45 % 1028,9 hPa 0,0 l/m 5,0 km/h (1 Bft) E 1,00 h 0,254 mm 515 W/m 0,7 C 12,2 C 7,9 km/h (2 Bft)
11/02/2008 13:00 12,5 C 44 % 1028,4 hPa 0,0 l/m 4,7 km/h (1 Bft) S-SE 1,00 h 0,279 mm 508 W/m 0,5 C 12,5 C 8,3 km/h (2 Bft)
11/02/2008 14:00 12,6 C 44 % 1027,9 hPa 0,0 l/m 6,1 km/h (2 Bft) S-SE 1,00 h 0,279 mm 438 W/m 0,7 C 12,6 C 9,4 km/h (2 Bft)
11/02/2008 15:00 12,8 C 43 % 1027,6 hPa 0,0 l/m 3,8 km/h (1 Bft) S 1,00 h 0,254 mm 320 W/m 0,4 C 12,8 C 6,0 km/h (2 Bft)
11/02/2008 16:00 12,6 C 43 % 1027,3 hPa 0,0 l/m 6,1 km/h (2 Bft) S 1,00 h 0,203 mm 169 W/m 0,5 C 12,6 C 8,5 km/h (2 Bft)
11/02/2008 17:00 10,7 C 55 % 1027,6 hPa 0,0 l/m 10,6 km/h (2 Bft) O-SO 0,30 h 0,127 mm 34 W/m 2,0 C 10,1 C 15,1 km/h (3 Bft)
11/02/2008 18:00 8,9 C 60 % 1027,8 hPa 0,0 l/m 11,8 km/h (2 Bft) O 0,00 h 0,076 mm 0 W/m 1,6 C 7,0 C 16,9 km/h (3 Bft)
11/02/2008 19:00 8,7 C 54 % 1027,9 hPa 0,0 l/m 11,4 km/h (2 Bft) O-NO 0,00 h 0,051 mm 0 W/m 0,0 C 6,9 C 15,2 km/h (3 Bft)
11/02/2008 20:00 7,9 C 62 % 1028,3 hPa 0,0 l/m 10,5 km/h (2 Bft) SO 0,00 h 0,076 mm 0 W/m 1,0 C 6,1 C 14,2 km/h (3 Bft)
11/02/2008 21:00 6,6 C 71 % 1028,9 hPa 0,0 l/m 4,8 km/h (1 Bft) N 0,00 h 0,051 mm 0 W/m 1,7 C 6,0 C 7,5 km/h (2 Bft)
11/02/2008 22:00 6,3 C 69 % 1029,2 hPa 0,0 l/m 3,5 km/h (1 Bft) NO 0,00 h 0,025 mm 0 W/m 1,1 C 5,9 C 5,0 km/h (1 Bft)
11/02/2008 23:00 5,9 C 71 % 1029,0 hPa 0,0 l/m 4,1 km/h (1 Bft) NO 0,00 h 0,025 mm 0 W/m 1,1 C 5,5 C 6,0 km/h (2 Bft)
12/02/2008 00:00 5,4 C 75 % 1029,0 hPa 0,0 l/m 5,4 km/h (1 Bft) O-NO 0,00 h 0,025 mm 0 W/m 1,3 C 4,4 C 8,6 km/h (2 Bft)
12/02/2008 01:00 5,5 C 76 % 1028,7 hPa 0,0 l/m 7,7 km/h (2 Bft) O-NO 0,00 h 0,025 mm 0 W/m 1,5 C 3,9 C 11,0 km/h (2 Bft)
12/02/2008 02:00 6,1 C 73 % 1028,6 hPa 0,0 l/m 7,0 km/h (2 Bft) O-NO 0,00 h 0,025 mm 0 W/m 1,5 C 4,8 C 9,7 km/h (2 Bft)
12/02/2008 03:00 6,2 C 71 % 1028,4 hPa 0,0 l/m 9,3 km/h (2 Bft) O 0,00 h 0,025 mm 0 W/m 1,2 C 4,2 C 12,7 km/h (3 Bft)
12/02/2008 04:00 6,0 C 71 % 1028,1 hPa 0,0 l/m 4,1 km/h (1 Bft) O 0,00 h 0,051 mm 0 W/m 1,2 C 5,6 C 5,7 km/h (1 Bft)
12/02/2008 05:00 5,4 C 73 % 1028,3 hPa 0,0 l/m 3,8 km/h (1 Bft) N-NO 0,00 h 0,025 mm 0 W/m 0,9 C 5,0 C 5,7 km/h (1 Bft)
12/02/2008 06:00 5,4 C 74 % 1028,5 hPa 0,0 l/m 3,8 km/h (1 Bft) NO 0,00 h 0,025 mm 0 W/m 1,1 C 4,9 C 5,8 km/h (2 Bft)
12/02/2008 07:00 5,4 C 74 % 1028,8 hPa 0,0 l/m 4,2 km/h (1 Bft) NO 0,05 h 0,025 mm 12 W/m 1,1 C 4,9 C 6,2 km/h (2 Bft)
12/02/2008 08:00 6,0 C 72 % 1029,2 hPa 0,0 l/m 3,3 km/h (1 Bft) NO 0,45 h 0,025 mm 80 W/m 1,3 C 5,7 C 5,2 km/h (1 Bft)
12/02/2008 09:00 7,7 C 67 % 1029,4 hPa 0,0 l/m 0,9 km/h (0 Bft) NO 0,58 h 0,051 mm 205 W/m 2,0 C 7,7 C 2,1 km/h (1 Bft)
12/02/2008 10:00 10,2 C 62 % 1029,3 hPa 0,0 l/m 2,8 km/h (1 Bft) NE 0,97 h 0,102 mm 403 W/m 3,1 C 10,2 C 5,5 km/h (1 Bft)
12/02/2008 11:00 11,4 C 58 % 1029,2 hPa 0,0 l/m 5,3 km/h (1 Bft) NE 0,97 h 0,203 mm 521 W/m 3,5 C 11,4 C 8,7 km/h (2 Bft)
12/02/2008 12:00 11,9 C 54 % 1029,1 hPa 0,0 l/m 7,6 km/h (2 Bft) E-NE 1,00 h 0,279 mm 522 W/m 2,9 C 11,9 C 12,2 km/h (3 Bft)
12/02/2008 13:00 11,7 C 53 % 1028,5 hPa 0,0 l/m 6,8 km/h (2 Bft) E 1,00 h 0,305 mm 493 W/m 2,5 C 11,7 C 11,6 km/h (2 Bft)
12/02/2008 14:00 12,1 C 52 % 1027,9 hPa 0,0 l/m 5,3 km/h (1 Bft) E 1,00 h 0,279 mm 424 W/m 2,6 C 12,1 C 8,7 km/h (2 Bft)
12/02/2008 15:00 11,5 C 55 % 1027,6 hPa 0,0 l/m 3,4 km/h (1 Bft) SE 1,00 h 0,229 mm 305 W/m 2,7 C 11,5 C 6,4 km/h (2 Bft)
12/02/2008 16:00 10,8 C 57 % 1027,7 hPa 0,0 l/m 1,7 km/h (1 Bft) S-SE 1,00 h 0,178 mm 158 W/m 2,7 C 10,8 C 3,9 km/h (1 Bft)
12/02/2008 17:00 9,5 C 62 % 1027,7 hPa 0,0 l/m 0,5 km/h (0 Bft) S-SE 0,12 h 0,076 mm 32 W/m 2,6 C 9,5 C 1,4 km/h (1 Bft)
12/02/2008 18:00 8,1 C 64 % 1028,1 hPa 0,0 l/m 1,3 km/h (1 Bft) S-SE 0,00 h 0,025 mm 0 W/m 1,7 C 8,0 C 2,2 km/h (1 Bft)
12/02/2008 19:00 7,0 C 69 % 1028,4 hPa 0,0 l/m 3,7 km/h (1 Bft) O 0,00 h 0,000 mm 0 W/m 1,7 C 6,7 C 5,5 km/h (1 Bft)
12/02/2008 20:00 6,3 C 72 % 1028,5 hPa 0,0 l/m 3,2 km/h (1 Bft) O 0,00 h 0,025 mm 0 W/m 1,7 C 6,0 C 5,2 km/h (1 Bft)
12/02/2008 21:00 6,0 C 74 % 1028,8 hPa 0,0 l/m 3,5 km/h (1 Bft) O-NO 0,00 h 0,025 mm 0 W/m 1,6 C 5,7 C 5,3 km/h (1 Bft)
12/02/2008 22:00 5,7 C 74 % 1029,1 hPa 0,0 l/m 5,3 km/h (1 Bft) O 0,00 h 0,025 mm 0 W/m 1,5 C 4,8 C 7,0 km/h (2 Bft)
12/02/2008 23:00 5,4 C 74 % 1029,3 hPa 0,0 l/m 4,4 km/h (1 Bft) NO 0,00 h 0,025 mm 0 W/m 1,1 C 4,8 C 6,5 km/h (2 Bft)
13/02/2008 00:00 5,3 C 74 % 1029,6 hPa 0,0 l/m 4,6 km/h (1 Bft) O-NO 0,00 h 0,025 mm 0 W/m 1,0 C 4,6 C 7,0 km/h (2 Bft)
13/02/2008 01:00 5,1 C 75 % 1029,8 hPa 0,0 l/m 3,8 km/h (1 Bft) O-NO 0,00 h 0,025 mm 0 W/m 0,9 C 4,6 C 6,1 km/h (2 Bft)
13/02/2008 02:00 5,2 C 74 % 1030,1 hPa 0,0 l/m 5,0 km/h (1 Bft) O-NO 0,00 h 0,025 mm 0 W/m 1,0 C 4,4 C 6,9 km/h (2 Bft)
13/02/2008 03:00 5,2 C 72 % 1030,3 hPa 0,0 l/m 5,4 km/h (1 Bft) O-NO 0,00 h 0,025 mm 0 W/m 0,6 C 4,2 C 8,0 km/h (2 Bft)
13/02/2008 04:00 5,2 C 72 % 1030,3 hPa 0,0 l/m 8,1 km/h (2 Bft) O-NO 0,00 h 0,025 mm 0 W/m 0,6 C 3,3 C 12,3 km/h (3 Bft)
13/02/2008 05:00 5,0 C 72 % 1030,5 hPa 0,0 l/m 5,8 km/h (2 Bft) O-NO 0,00 h 0,025 mm 0 W/m 0,5 C 3,9 C 8,6 km/h (2 Bft)
13/02/2008 06:00 4,6 C 73 % 1030,7 hPa 0,0 l/m 9,7 km/h (2 Bft) O-NO 0,00 h 0,025 mm 0 W/m 0,2 C 2,4 C 13,4 km/h (3 Bft)
13/02/2008 07:00 5,1 C 71 % 1031,1 hPa 0,0 l/m 15,2 km/h (3 Bft) O-NO 0,13 h 0,025 mm 15 W/m 0,3 C 1,8 C 19,4 km/h (3 Bft)
13/02/2008 08:00 6,5 C 66 % 1031,3 hPa 0,0 l/m 11,8 km/h (2 Bft) O-NO 0,85 h 0,051 mm 96 W/m 0,7 C 4,2 C 15,6 km/h (3 Bft)
13/02/2008 09:00 7,9 C 63 % 1031,8 hPa 0,0 l/m 2,3 km/h (1 Bft) O-NO 1,00 h 0,076 mm 242 W/m 1,4 C 7,8 C 4,4 km/h (1 Bft)
13/02/2008 10:00 10,2 C 60 % 1032,1 hPa 0,0 l/m 3,9 km/h (1 Bft) E 1,00 h 0,127 mm 369 W/m 2,9 C 10,2 C 5,7 km/h (1 Bft)
13/02/2008 11:00 11,4 C 57 % 1032,4 hPa 0,0 l/m 5,4 km/h (1 Bft) E 1,00 h 0,203 mm 467 W/m 3,1 C 11,4 C 9,5 km/h (2 Bft)
13/02/2008 12:00 11,6 C 52 % 1032,2 hPa 0,0 l/m 7,2 km/h (2 Bft) E 1,00 h 0,254 mm 508 W/m 2,2 C 11,6 C 13,3 km/h (3 Bft)
13/02/2008 13:00 11,8 C 54 % 1031,7 hPa 0,0 l/m 6,7 km/h (2 Bft) E 1,00 h 0,279 mm 494 W/m 2,7 C 11,8 C 12,5 km/h (3 Bft)
13/02/2008 14:00 11,6 C 52 % 1031,1 hPa 0,0 l/m 6,0 km/h (2 Bft) E 1,00 h 0,279 mm 423 W/m 2,1 C 11,6 C 11,2 km/h (2 Bft)
13/02/2008 15:00 11,1 C 55 % 1031,0 hPa 0,0 l/m 4,7 km/h (1 Bft) SE 1,00 h 0,229 mm 307 W/m 2,5 C 11,1 C 8,2 km/h (2 Bft)
13/02/2008 16:00 10,4 C 63 % 1031,1 hPa 0,0 l/m 1,8 km/h (1 Bft) E-SE 1,00 h 0,178 mm 159 W/m 3,7 C 10,4 C 4,1 km/h (1 Bft)
13/02/2008 17:00 9,0 C 68 % 1031,3 hPa 0,0 l/m 0,6 km/h (0 Bft) E-SE 0,07 h 0,076 mm 34 W/m 3,4 C 9,0 C 1,5 km/h (1 Bft)
13/02/2008 18:00 7,1 C 73 % 1031,6 hPa 0,0 l/m 0,3 km/h (0 Bft) E-SE 0,00 h 0,025 mm 0 W/m 2,5 C 7,1 C 0,7 km/h (0 Bft)
13/02/2008 19:00 6,5 C 76 % 1031,9 hPa 0,0 l/m 2,9 km/h (1 Bft) E-SE 0,00 h 0,000 mm 0 W/m 2,6 C 6,4 C 4,3 km/h (1 Bft)
13/02/2008 20:00 5,6 C 78 % 1032,1 hPa 0,0 l/m 4,0 km/h (1 Bft) NO 0,00 h 0,025 mm 0 W/m 2,2 C 5,1 C 6,8 km/h (2 Bft)
13/02/2008 21:00 5,5 C 79 % 1032,1 hPa 0,0 l/m 6,1 km/h (2 Bft) NO 0,00 h 0,025 mm 0 W/m 2,1 C 4,3 C 8,6 km/h (2 Bft)
13/02/2008 22:00 5,3 C 77 % 1031,9 hPa 0,0 l/m 5,2 km/h (1 Bft) NO 0,00 h 0,025 mm 0 W/m 1,6 C 4,4 C 7,1 km/h (2 Bft)
13/02/2008 23:00 4,9 C 74 % 1031,8 hPa 0,0 l/m 4,5 km/h (1 Bft) O-NO 0,00 h 0,025 mm 0 W/m 0,7 C 4,2 C 6,9 km/h (2 Bft)
14/02/2008 00:00 4,8 C 70 % 1032,0 hPa 0,0 l/m 4,6 km/h (1 Bft) O-NO 0,00 h 0,025 mm 0 W/m -0,2 C 4,1 C 7,0 km/h (2 Bft)
14/02/2008 01:00 4,8 C 63 % 1031,9 hPa 0,0 l/m 3,7 km/h (1 Bft) O-NO 0,00 h 0,025 mm 0 W/m -1,7 C 4,4 C 6,2 km/h (2 Bft)
14/02/2008 02:00 4,8 C 60 % 1031,5 hPa 0,0 l/m 5,1 km/h (1 Bft) NO 0,00 h 0,025 mm 0 W/m -2,3 C 3,9 C 7,9 km/h (2 Bft)
14/02/2008 03:00 4,5 C 58 % 1031,3 hPa 0,0 l/m 3,8 km/h (1 Bft) O-NO 0,00 h 0,051 mm 0 W/m -3,1 C 4,0 C 6,4 km/h (2 Bft)
14/02/2008 04:00 4,5 C 57 % 1031,0 hPa 0,0 l/m 4,7 km/h (1 Bft) NO 0,00 h 0,025 mm 0 W/m -3,4 C 3,6 C 6,7 km/h (2 Bft)
14/02/2008 05:00 4,5 C 53 % 1030,9 hPa 0,0 l/m 4,6 km/h (1 Bft) O-NO 0,00 h 0,051 mm 0 W/m -4,2 C 3,8 C 6,9 km/h (2 Bft)
14/02/2008 06:00 3,8 C 53 % 1030,8 hPa 0,0 l/m 4,6 km/h (1 Bft) NO 0,00 h 0,051 mm 0 W/m -4,8 C 3,0 C 6,7 km/h (2 Bft)
14/02/2008 07:00 4,2 C 52 % 1031,0 hPa 0,0 l/m 3,9 km/h (1 Bft) NO 0,28 h 0,051 mm 17 W/m -4,7 C 3,7 C 5,5 km/h (1 Bft)
14/02/2008 08:00 6,0 C 49 % 1031,2 hPa 0,0 l/m 1,3 km/h (1 Bft) NO 1,00 h 0,025 mm 113 W/m -3,9 C 6,0 C 2,1 km/h (1 Bft)
14/02/2008 09:00 8,3 C 46 % 1031,3 hPa 0,0 l/m 1,0 km/h (0 Bft) S-SE 1,00 h 0,051 mm 267 W/m -2,7 C 8,3 C 2,1 km/h (1 Bft)
14/02/2008 10:00 9,9 C 46 % 1031,5 hPa 0,0 l/m 2,9 km/h (1 Bft) S-SE 1,00 h 0,127 mm 402 W/m -1,2 C 9,8 C 5,1 km/h (1 Bft)
14/02/2008 11:00 11,3 C 48 % 1031,5 hPa 0,0 l/m 4,3 km/h (1 Bft) E-SE 1,00 h 0,203 mm 496 W/m 0,8 C 11,3 C 7,1 km/h (2 Bft)
14/02/2008 12:00 11,9 C 51 % 1030,8 hPa 0,0 l/m 5,1 km/h (1 Bft) S-SE 1,00 h 0,254 mm 533 W/m 1,9 C 11,9 C 8,7 km/h (2 Bft)
14/02/2008 13:00 12,1 C 56 % 1030,0 hPa 0,0 l/m 5,8 km/h (2 Bft) S-SE 1,00 h 0,279 mm 513 W/m 3,6 C 12,1 C 10,2 km/h (2 Bft)
14/02/2008 14:00 12,4 C 57 % 1029,4 hPa 0,0 l/m 6,6 km/h (2 Bft) E 1,00 h 0,279 mm 449 W/m 4,2 C 12,4 C 10,4 km/h (2 Bft)
14/02/2008 15:00 11,6 C 59 % 1028,9 hPa 0,0 l/m 5,8 km/h (2 Bft) E 1,00 h 0,254 mm 326 W/m 3,9 C 11,6 C 9,9 km/h (2 Bft)
14/02/2008 16:00 10,8 C 63 % 1028,6 hPa 0,0 l/m 2,3 km/h (1 Bft) E-SE 1,00 h 0,178 mm 174 W/m 3,9 C 10,8 C 4,5 km/h (1 Bft)
14/02/2008 17:00 9,4 C 65 % 1028,3 hPa 0,0 l/m 0,9 km/h (0 Bft) E-SE 0,37 h 0,102 mm 42 W/m 3,2 C 9,4 C 2,3 km/h (1 Bft)
14/02/2008 18:00 7,4 C 70 % 1028,6 hPa 0,0 l/m 0,4 km/h (0 Bft) E-SE 0,00 h 0,025 mm 5 W/m 2,4 C 7,4 C 1,0 km/h (0 Bft)
14/02/2008 19:00 6,6 C 74 % 1028,9 hPa 0,0 l/m 3,2 km/h (1 Bft) E-SE 0,00 h 0,000 mm 0 W/m 2,4 C 6,4 C 4,5 km/h (1 Bft)
14/02/2008 20:00 5,8 C 77 % 1029,1 hPa 0,0 l/m 4,0 km/h (1 Bft) O-NO 0,00 h 0,025 mm 0 W/m 2,2 C 5,4 C 6,5 km/h (2 Bft)
14/02/2008 21:00 5,4 C 80 % 1028,8 hPa 0,0 l/m 6,2 km/h (2 Bft) O-NO 0,00 h 0,025 mm 0 W/m 2,1 C 4,1 C 9,0 km/h (2 Bft)
14/02/2008 22:00 5,1 C 80 % 1028,6 hPa 0,0 l/m 7,2 km/h (2 Bft) O-NO 0,00 h 0,025 mm 0 W/m 2,0 C 3,5 C 10,9 km/h (2 Bft)
14/02/2008 23:00 4,9 C 79 % 1028,2 hPa 0,0 l/m 6,5 km/h (2 Bft) O-NO 0,00 h 0,025 mm 0 W/m 1,5 C 3,4 C 9,7 km/h (2 Bft)
15/02/2008 00:00 4,6 C 78 % 1027,9 hPa 0,0 l/m 6,4 km/h (2 Bft) O-NO 0,00 h 0,025 mm 0 W/m 1,0 C 3,2 C 9,4 km/h (2 Bft)
15/02/2008 01:00 4,5 C 78 % 1027,4 hPa 0,0 l/m 5,5 km/h (1 Bft) O-NO 0,00 h 0,025 mm 0 W/m 1,0 C 3,4 C 8,4 km/h (2 Bft)
15/02/2008 02:00 4,1 C 77 % 1026,9 hPa 0,0 l/m 5,5 km/h (1 Bft) NO 0,00 h 0,025 mm 0 W/m 0,5 C 2,9 C 7,9 km/h (2 Bft)
15/02/2008 03:00 4,3 C 76 % 1026,3 hPa 0,0 l/m 5,1 km/h (1 Bft) O-NO 0,00 h 0,025 mm 0 W/m 0,4 C 3,3 C 6,6 km/h (2 Bft)
15/02/2008 04:00 3,9 C 75 % 1026,1 hPa 0,0 l/m 4,9 km/h (1 Bft) O-NO 0,00 h 0,025 mm 0 W/m -0,1 C 3,0 C 6,4 km/h (2 Bft)
15/02/2008 05:00 4,0 C 70 % 1025,8 hPa 0,0 l/m 4,6 km/h (1 Bft) O-NO 0,00 h 0,025 mm 0 W/m -0,9 C 3,2 C 6,5 km/h (2 Bft)
15/02/2008 06:00 4,1 C 70 % 1025,5 hPa 0,0 l/m 4,9 km/h (1 Bft) NO 0,00 h 0,025 mm 0 W/m -1,0 C 3,2 C 6,9 km/h (2 Bft)
15/02/2008 07:00 4,1 C 72 % 1025,5 hPa 0,0 l/m 5,6 km/h (1 Bft) NO 0,13 h 0,025 mm 17 W/m -0,4 C 2,8 C 7,6 km/h (2 Bft)
15/02/2008 08:00 5,0 C 73 % 1025,6 hPa 0,0 l/m 6,0 km/h (2 Bft) NO 0,97 h 0,025 mm 108 W/m 0,5 C 3,8 C 9,1 km/h (2 Bft)
15/02/2008 09:00 7,5 C 69 % 1025,6 hPa 0,0 l/m 5,3 km/h (1 Bft) NO 1,00 h 0,051 mm 260 W/m 2,1 C 6,8 C 7,4 km/h (2 Bft)
15/02/2008 10:00 9,6 C 66 % 1025,2 hPa 0,0 l/m 1,9 km/h (1 Bft) NO 1,00 h 0,127 mm 403 W/m 3,6 C 9,5 C 3,9 km/h (1 Bft)
15/02/2008 11:00 10,7 C 63 % 1025,1 hPa 0,0 l/m 5,5 km/h (1 Bft) S 1,00 h 0,203 mm 502 W/m 4,0 C 10,7 C 8,5 km/h (2 Bft)
15/02/2008 12:00 11,5 C 60 % 1024,5 hPa 0,0 l/m 5,7 km/h (1 Bft) E 1,00 h 0,254 mm 530 W/m 4,0 C 11,5 C 9,1 km/h (2 Bft)
15/02/2008 13:00 12,3 C 58 % 1023,9 hPa 0,0 l/m 7,4 km/h (2 Bft) E 1,00 h 0,279 mm 518 W/m 4,4 C 12,3 C 11,3 km/h (2 Bft)
15/02/2008 14:00 12,2 C 55 % 1023,4 hPa 0,0 l/m 6,3 km/h (2 Bft) E 1,00 h 0,305 mm 452 W/m 3,5 C 12,2 C 9,3 km/h (2 Bft)
15/02/2008 15:00 12,0 C 56 % 1023,2 hPa 0,0 l/m 5,2 km/h (1 Bft) E 1,00 h 0,254 mm 326 W/m 3,5 C 12,0 C 8,8 km/h (2 Bft)
15/02/2008 16:00 11,1 C 56 % 1022,9 hPa 0,0 l/m 2,6 km/h (1 Bft) E-SE 1,00 h 0,178 mm 169 W/m 2,6 C 11,1 C 5,2 km/h (1 Bft)
15/02/2008 17:00 9,5 C 64 % 1022,9 hPa 0,0 l/m 1,6 km/h (1 Bft) E 0,20 h 0,102 mm 40 W/m 3,1 C 9,5 C 2,9 km/h (1 Bft)
15/02/2008 18:00 7,6 C 72 % 1023,1 hPa 0,0 l/m 0,0 km/h (0 Bft) N 0,00 h 0,025 mm 5 W/m 2,8 C 7,6 C 0,0 km/h (0 Bft)
15/02/2008 19:00 6,9 C 77 % 1023,5 hPa 0,0 l/m 2,9 km/h (1 Bft) E 0,00 h 0,000 mm 0 W/m 3,1 C 6,7 C 3,9 km/h (1 Bft)
15/02/2008 20:00 6,1 C 77 % 1023,7 hPa 0,0 l/m 3,5 km/h (1 Bft) NO 0,00 h 0,025 mm 0 W/m 2,5 C 5,9 C 4,9 km/h (1 Bft)
15/02/2008 21:00 5,4 C 79 % 1024,1 hPa 0,0 l/m 2,0 km/h (1 Bft) NO 0,00 h 0,025 mm 0 W/m 2,1 C 5,2 C 3,4 km/h (1 Bft)
15/02/2008 22:00 5,2 C 80 % 1024,3 hPa 0,0 l/m 4,6 km/h (1 Bft) NO 0,00 h 0,025 mm 0 W/m 2,0 C 4,4 C 6,2 km/h (2 Bft)
15/02/2008 23:00 5,9 C 73 % 1024,4 hPa 0,0 l/m 6,2 km/h (2 Bft) O 0,00 h 0,025 mm 0 W/m 1,4 C 4,8 C 7,9 km/h (2 Bft)
16/02/2008 00:00 6,0 C 67 % 1024,5 hPa 0,0 l/m 6,4 km/h (2 Bft) O 0,00 h 0,025 mm 0 W/m 0,2 C 4,7 C 8,0 km/h (2 Bft)
16/02/2008 01:00 5,7 C 66 % 1025,1 hPa 0,0 l/m 2,6 km/h (1 Bft) O-NO 0,00 h 0,025 mm 0 W/m -0,1 C 5,5 C 4,0 km/h (1 Bft)
16/02/2008 02:00 5,2 C 70 % 1025,3 hPa 0,0 l/m 3,2 km/h (1 Bft) N-NO 0,00 h 0,025 mm 0 W/m 0,1 C 5,0 C 4,9 km/h (1 Bft)
16/02/2008 03:00 5,5 C 72 % 1025,6 hPa 0,0 l/m 1,7 km/h (1 Bft) N-NO 0,00 h 0,025 mm 0 W/m 0,8 C 5,4 C 2,6 km/h (1 Bft)
16/02/2008 04:00 5,3 C 72 % 1026,3 hPa 0,0 l/m 1,4 km/h (1 Bft) N-NO 0,00 h 0,025 mm 0 W/m 0,7 C 5,3 C 2,5 km/h (1 Bft)
16/02/2008 05:00 5,3 C 70 % 1026,9 hPa 0,0 l/m 6,1 km/h (2 Bft) O 0,00 h 0,025 mm 0 W/m 0,3 C 4,1 C 8,3 km/h (2 Bft)
16/02/2008 06:00 5,2 C 66 % 1027,3 hPa 0,0 l/m 11,0 km/h (2 Bft) O 0,00 h 0,025 mm 0 W/m -0,6 C 2,7 C 15,6 km/h (3 Bft)
16/02/2008 07:00 5,5 C 67 % 1027,9 hPa 0,0 l/m 11,5 km/h (2 Bft) O-NO 0,03 h 0,051 mm 13 W/m -0,1 C 3,0 C 15,7 km/h (3 Bft)
16/02/2008 08:00 6,6 C 68 % 1028,7 hPa 0,0 l/m 9,9 km/h (2 Bft) O-NO 0,12 h 0,051 mm 64 W/m 1,2 C 4,6 C 13,0 km/h (3 Bft)
16/02/2008 09:00 8,5 C 70 % 1029,3 hPa 0,0 l/m 10,5 km/h (2 Bft) SO 0,45 h 0,051 mm 171 W/m 3,2 C 6,8 C 13,8 km/h (3 Bft)
16/02/2008 10:00 10,1 C 71 % 1029,7 hPa 0,0 l/m 16,4 km/h (3 Bft) S-SO 0,97 h 0,102 mm 345 W/m 5,1 C 9,0 C 22,2 km/h (4 Bft)
16/02/2008 11:00 10,5 C 68 % 1030,1 hPa 0,0 l/m 21,9 km/h (4 Bft) S-SO 1,00 h 0,229 mm 445 W/m 4,8 C 10,5 C 28,6 km/h (4 Bft)
16/02/2008 12:00 11,4 C 64 % 1030,5 hPa 0,0 l/m 15,6 km/h (3 Bft) S-SO 0,82 h 0,279 mm 444 W/m 4,8 C 11,4 C 21,3 km/h (4 Bft)
16/02/2008 13:00 10,9 C 65 % 1030,7 hPa 0,0 l/m 7,4 km/h (2 Bft) S-SO 0,00 h 0,279 mm 99 W/m 4,5 C 10,9 C 10,9 km/h (2 Bft)
16/02/2008 14:00 9,6 C 67 % 1031,0 hPa 0,0 l/m 7,4 km/h (2 Bft) E 0,00 h 0,076 mm 63 W/m 3,6 C 8,6 C 12,0 km/h (2 Bft)
16/02/2008 15:00 9,4 C 63 % 1031,0 hPa 0,0 l/m 9,6 km/h (2 Bft) E 0,00 h 0,051 mm 94 W/m 2,7 C 8,1 C 14,6 km/h (3 Bft)
16/02/2008 16:00 9,1 C 62 % 1031,0 hPa 0,0 l/m 5,2 km/h (1 Bft) E 0,00 h 0,076 mm 81 W/m 2,3 C 8,6 C 8,6 km/h (2 Bft)
16/02/2008 17:00 8,8 C 64 % 1031,6 hPa 0,0 l/m 5,3 km/h (1 Bft) E 0,00 h 0,051 mm 17 W/m 2,5 C 8,2 C 8,4 km/h (2 Bft)
16/02/2008 18:00 8,2 C 71 % 1032,4 hPa 0,0 l/m 2,9 km/h (1 Bft) E 0,00 h 0,025 mm 0 W/m 3,2 C 8,0 C 4,7 km/h (1 Bft)
16/02/2008 19:00 7,7 C 73 % 1032,9 hPa 0,0 l/m 1,2 km/h (1 Bft) E 0,00 h 0,025 mm 0 W/m 3,1 C 7,7 C 2,5 km/h (1 Bft)
16/02/2008 20:00 7,7 C 72 % 1033,4 hPa 0,0 l/m 0,5 km/h (0 Bft) E 0,00 h 0,025 mm 0 W/m 3,1 C 7,7 C 1,4 km/h (1 Bft)
16/02/2008 21:00 7,7 C 73 % 1034,1 hPa 0,0 l/m 0,4 km/h (0 Bft) E 0,00 h 0,025 mm 0 W/m 3,2 C 7,7 C 0,8 km/h (0 Bft)
16/02/2008 22:00 7,6 C 73 % 1034,8 hPa 0,0 l/m 0,1 km/h (0 Bft) E 0,00 h 0,025 mm 0 W/m 3,1 C 7,6 C 0,6 km/h (0 Bft)
16/02/2008 23:00 7,6 C 74 % 1035,3 hPa 0,0 l/m 0,7 km/h (0 Bft) E 0,00 h 0,025 mm 0 W/m 3,3 C 7,6 C 1,6 km/h (1 Bft)
17/02/2008 00:00 7,5 C 75 % 1035,9 hPa 0,0 l/m 0,6 km/h (0 Bft) E 0,00 h 0,025 mm 0 W/m 3,3 C 7,5 C 2,0 km/h (1 Bft)
17/02/2008 01:00 7,3 C 76 % 1036,4 hPa 0,0 l/m 5,3 km/h (1 Bft) E 0,00 h 0,025 mm 0 W/m 3,3 C 6,5 C 8,0 km/h (2 Bft)
17/02/2008 02:00 7,3 C 72 % 1037,0 hPa 0,0 l/m 7,8 km/h (2 Bft) NE 0,00 h 0,025 mm 0 W/m 2,5 C 5,9 C 11,3 km/h (2 Bft)
17/02/2008 03:00 7,3 C 67 % 1037,2 hPa 0,0 l/m 9,9 km/h (2 Bft) E-NE 0,00 h 0,051 mm 0 W/m 1,5 C 5,4 C 14,4 km/h (3 Bft)
17/02/2008 04:00 7,2 C 65 % 1037,3 hPa 0,0 l/m 9,6 km/h (2 Bft) E-NE 0,00 h 0,051 mm 0 W/m 1,0 C 5,4 C 13,7 km/h (3 Bft)
17/02/2008 05:00 7,1 C 64 % 1037,6 hPa 0,0 l/m 8,2 km/h (2 Bft) E-NE 0,00 h 0,051 mm 0 W/m 0,8 C 5,6 C 11,5 km/h (2 Bft)
17/02/2008 06:00 7,0 C 64 % 1037,9 hPa 0,0 l/m 14,0 km/h (3 Bft) E-NE 0,00 h 0,051 mm 0 W/m 0,7 C 4,4 C 20,1 km/h (4 Bft)
17/02/2008 07:00 6,9 C 66 % 1038,3 hPa 0,0 l/m 13,9 km/h (3 Bft) E-NE 0,00 h 0,051 mm 5 W/m 1,0 C 4,3 C 19,6 km/h (3 Bft)
17/02/2008 08:00 6,8 C 68 % 1038,9 hPa 0,0 l/m 12,8 km/h (3 Bft) E-NE 0,00 h 0,051 mm 25 W/m 1,4 C 4,4 C 18,8 km/h (3 Bft)
17/02/2008 09:00 7,0 C 69 % 1039,2 hPa 0,0 l/m 12,6 km/h (3 Bft) E-NE 0,00 h 0,051 mm 66 W/m 1,6 C 4,6 C 18,8 km/h (3 Bft)
17/02/2008 10:00 7,1 C 66 % 1039,3 hPa 0,0 l/m 16,3 km/h (3 Bft) E 0,00 h 0,076 mm 76 W/m 1,2 C 4,2 C 23,4 km/h (4 Bft)
17/02/2008 11:00 6,8 C 65 % 1039,9 hPa 0,0 l/m 12,9 km/h (3 Bft) E 0,00 h 0,102 mm 81 W/m 0,7 C 4,4 C 19,3 km/h (3 Bft)
17/02/2008 12:00 7,0 C 62 % 1039,9 hPa 0,0 l/m 10,3 km/h (2 Bft) E 0,00 h 0,076 mm 86 W/m 0,2 C 5,1 C 15,4 km/h (3 Bft)
17/02/2008 13:00 6,9 C 61 % 1039,8 hPa 0,0 l/m 6,7 km/h (2 Bft) E 0,00 h 0,076 mm 69 W/m -0,0 C 5,8 C 10,2 km/h (2 Bft)
17/02/2008 14:00 6,9 C 61 % 1039,4 hPa 0,0 l/m 3,0 km/h (1 Bft) S-SE 0,00 h 0,051 mm 90 W/m -0,1 C 6,6 C 5,1 km/h (1 Bft)
17/02/2008 15:00 7,4 C 60 % 1038,7 hPa 0,0 l/m 3,4 km/h (1 Bft) E 0,00 h 0,051 mm 136 W/m 0,2 C 7,1 C 6,0 km/h (2 Bft)
17/02/2008 16:00 7,7 C 61 % 1038,0 hPa 0,0 l/m 3,4 km/h (1 Bft) E 0,58 h 0,076 mm 145 W/m 0,6 C 7,4 C 5,3 km/h (1 Bft)
17/02/2008 17:00 6,5 C 64 % 1037,5 hPa 0,0 l/m 2,2 km/h (1 Bft) E-NE 0,02 h 0,076 mm 42 W/m 0,3 C 6,4 C 3,9 km/h (1 Bft)
17/02/2008 18:00 5,5 C 67 % 1037,4 hPa 0,0 l/m 0,5 km/h (0 Bft) E-NE 0,00 h 0,025 mm 5 W/m -0,2 C 5,5 C 1,1 km/h (1 Bft)
17/02/2008 19:00 5,2 C 69 % 1037,4 hPa 0,0 l/m 1,8 km/h (1 Bft) E-NE 0,00 h 0,000 mm 0 W/m 0,1 C 5,2 C 3,4 km/h (1 Bft)
17/02/2008 20:00 5,2 C 71 % 1037,2 hPa 0,0 l/m 3,6 km/h (1 Bft) O-NO 0,00 h 0,025 mm 0 W/m 0,5 C 4,7 C 5,6 km/h (1 Bft)
17/02/2008 21:00 5,2 C 71 % 1037,0 hPa 0,0 l/m 5,2 km/h (1 Bft) O-NO 0,00 h 0,025 mm 0 W/m 0,4 C 4,3 C 7,2 km/h (2 Bft)
17/02/2008 22:00 5,3 C 70 % 1036,8 hPa 0,0 l/m 5,0 km/h (1 Bft) O-NO 0,00 h 0,025 mm 0 W/m 0,3 C 4,4 C 6,9 km/h (2 Bft)
17/02/2008 23:00 5,3 C 69 % 1036,6 hPa 0,0 l/m 8,0 km/h (2 Bft) O-NO 0,00 h 0,025 mm 0 W/m 0,1 C 3,6 C 10,6 km/h (2 Bft)
Min-Date _ 14/02/08 11/02/08 15/02/08 - 11/02/08 - - - - 14/02/08 13/02/08 11/02/08
_ Min-Heure 06:42 15:55 17:00 - 09:42 - - - - 06:24 07:04 09:44
Minimum _ 3,4 C 39 % 1022,8 hPa - 0,0 km/h (0 Bft) - - - - -5,6 C 0,9 C 0,0 km/h (0 Bft)
Max-Date _ 11/02/08 15/02/08 17/02/08 11/02/08 17/02/08 - 11/02/08 12/02/08 12/02/08 16/02/08 11/02/08 17/02/08
_ Max-Heure 15:31 21:54 11:30 00:00 10:29 - 07:47 13:00 11:34 10:22 15:31 10:29
Maximum _ 13,1 C 81 % 1040,0 hPa 0,0 l/m 29,0 km/h
E (5 Bft)
- 0,02 h 0,305 mm 587 W/m 5,5 C 13,1 C 38,6 km/h
E (5 Bft)
Moyenne _ 7,4 C 66 % 1030,2 hPa #0,0 l/m 5,5 km/h (1 Bft) O-NO #49:29 h #13,559 mm 235 W/m 1,3 C 6,7 C 8,3 km/h (2 Bft)
Roquefort les pins